Kampeska, South Dakota
Current Conditions -  °F | °C
As of 1:10 AM on Friday 19 Dec 2014 (Local Time) from KATY Reporting Station
Haze Haze  
Wind Chill: 16°   Ceiling: 300
Heat Index: 25°   Visibility: 2.5mi
Dew Point: 24°   Wind: 8mph
Humidity: 96%   Direction: 180°S
Pressure: 30.12"   Gusts: NA
Location:  44.9156°N, 97.1699°W
Report Text: KATY 190710Z AUTO 18007KT 2 1/2SM BR OVC003 M04/M04 A3012 RMK AO2 T10391044
Loading
Personal Weather Stations






























Interactive Weather Map New forecast layout! Learn more

10-Day Weather Forecast

Advertisements
Track Severe Weather on mobile